Erie, MI (48133)

1:26 PM EST on December 28, 2014 (GMT -0500)
South County, Erie, MI | Change Station
CLOSE
Current Station
Personal Weather Station
Location: Erie, MI
Elevation: 576 ft
Nearby Weather Stations

Elev 576 ft 41.76 °N, 83.50 °W | Updated 1 minute ago

Mostly Cloudy
Mostly Cloudy
37.5 °F
Feels Like 32 °F
N
8.0
Wind Variable Wind from WNW
Gusts 9.0 mph

Today
High -- | Low -- °F
--% Chance of Precip.
Yesterday
High -- | Low -- °F
Precip. -- in
8:00 AM 5:10 PM
Waxing Crescent, 50% visible
Pressure 30.09 in
Visibility 10.0 miles
Clouds Scattered Clouds 2600 ft
Mostly Cloudy 3100 ft
Mostly Cloudy 3800 ft
Windchill 32 °F
Dew Point 30 °F
Humidity 75%
Rainfall 0.00 in
Snow Depth Not available.
UV 1 out of 12
Pollen .10 out of 12
Air Quality Not available.
Flu Activity Not available.
METAR KDUH 281815Z AUTO 27006KT 10SM SCT026 BKN031 BKN038 03/M02 A3009 RMK AO2

More Conditions Fewer Conditions

Pressure 30.09 in
Visibility 10.0 miles
Clouds Scattered Clouds 2600 ft
Mostly Cloudy 3100 ft
Mostly Cloudy 3800 ft
Windchill 32 °F
Dew Point 30 °F
Humidity 75%
Rainfall 0.00 in
Snow Depth Not available.
UV 1 out of 12
Pollen .10 out of 12
Air Quality Not available.
Flu Activity Not available.
METAR KDUH 281815Z AUTO 27006KT 10SM SCT026 BKN031 BKN038 03/M02 A3009 RMK AO2

More Conditions Fewer Conditions

10-Day Weather Forecast

Almanac

Astronomy

Dec. 28, 2014 Rise Set
Actual Time
Civil Twilight
Nautical Twilight
Astronomical Twilight
Moon
Length of Visible Light
Length of Day
Tomorrow will be .
, % of the Moon is Illuminated

Today's Extremes

State Highs State Lows

Community

WunderPhotos

Upload Photos

1,781,379 photos uploaded!

WunderBlogs® & News

Nearby

Air Quality

  Air Quality AQ Index Pollutant
Not available.

Snow Depth

Station Depth Elevation

Earthquake Activity

City Distance Mag. Time & Date
Minimum magnitude displayed is 2.5.

Coastal Water Temperatures

Place Temperature

Nearby Weather Stations